Airport View

Enter AWOS ICAO identifier for current METAR.

KFNL for example

KPIT 051351Z 31011KT 10SM SCT018 OVC031 04/01 A3005

5 Dec 2016 14:24

Phone: 412-472-0145

Other Area AWOS: 42PN - KAGC - KBVI - KBTP

TAF KPIT 051156Z 0512/0618 27010G18KT P6SM SCT017 BKN023 FM051800 27006KT P6SM BKN035 FM061500 11009KT 6SM -RA OVC060